»·PEaware :: AAL225 KLGB-KSFO

AAL225 :: KLGB-KSFO

FLIGHT INFORMATION

Flight Status: Arrived
Operator:
American Airlines
More flights by this operator :: More flights under this callsign
Pilot: Michael R. (16974)
Aircraft: BOEING 737-800
(B738)
More flights by this aircraft type
Origin: KLGB Long Beach
United States
Destination: KSFO San Francisco Intl
United States
More flights between these airports :: More routes between these airports
Route: VTU RZS STOKD SERFR SERFR3
File this flight plan on PilotEdge
Remarks:
Altitude:
(Current/Filed)
34,000ft
Speed:
(Current/Filed)
457kts
Departed: 01-May-18 09:00 PM
Arrived: 01-May-18 09:57 PM
Distance/Time
Traveled:
307nm/0:57
Distance/Time
To Go:
Arrived

Flight Plot

Page will automatically refresh every two minutes.

Flight plan parsing failed; only flown route is shown


Map Options




Map Legend


Flown Route
Filed Route
Departure Airport
Arrival Airport
Navaid (VOR, NDB)
Fix

Horizontal Profiles

Position Reports

Time Latitude Longitude Heading Altitude Ground
Speed
01-May-18 20:24 33.817817 -118.146220 90 68ft 0kts
01-May-18 20:25 33.817817 -118.146220 90 68ft 0kts
01-May-18 20:26 33.817817 -118.146220 90 68ft 0kts
01-May-18 20:27 33.817817 -118.146220 90 68ft 0kts
01-May-18 20:28 33.817817 -118.146220 90 68ft 0kts
01-May-18 20:29 33.817817 -118.146220 90 68ft 0kts
01-May-18 20:30 33.817817 -118.146220 90 68ft 0kts
01-May-18 20:31 33.817817 -118.146220 90 68ft 0kts
01-May-18 20:32 33.817817 -118.146220 90 68ft 0kts
01-May-18 20:33 33.817817 -118.146220 90 68ft 0kts
01-May-18 20:34 33.817817 -118.146220 90 68ft 0kts
01-May-18 20:35 33.817817 -118.146220 90 68ft 0kts
01-May-18 20:36 33.817817 -118.146220 90 68ft 0kts
01-May-18 20:37 33.817817 -118.146220 90 68ft 0kts
01-May-18 20:38 33.817817 -118.146220 90 68ft 0kts
01-May-18 20:39 33.817817 -118.146220 90 68ft 0kts
01-May-18 20:40 33.817817 -118.146220 90 68ft 0kts
01-May-18 20:41 33.817817 -118.146220 90 68ft 0kts
01-May-18 20:42 33.817817 -118.146220 90 68ft 0kts
01-May-18 20:43 33.817817 -118.146220 90 68ft 0kts
01-May-18 20:44 33.817817 -118.146220 90 68ft 0kts
01-May-18 20:45 33.817817 -118.146220 90 68ft 0kts
01-May-18 20:46 33.817817 -118.146220 90 68ft 0kts
01-May-18 20:47 33.817817 -118.146220 90 68ft 0kts
01-May-18 20:48 33.817817 -118.146220 90 68ft 0kts
01-May-18 20:49 33.817882 -118.146790 125 68ft 2kts
01-May-18 20:50 33.818248 -118.146993 179 68ft 0kts
01-May-18 20:51 33.818248 -118.146993 179 68ft 0kts
01-May-18 20:52 33.818248 -118.146993 179 68ft 0kts
01-May-18 20:53 33.818248 -118.146993 179 68ft 0kts
01-May-18 20:54 33.816415 -118.146987 180 68ft 16kts
01-May-18 20:54 33.812666 -118.143271 135 68ft 27kts
01-May-18 20:56 33.808406 -118.138138 136 68ft 15kts
01-May-18 20:57 33.807681 -118.137591 190 68ft 0kts
01-May-18 20:58 33.807681 -118.137591 190 68ft 0kts
01-May-18 20:58 33.807538 -118.138977 313 68ft 9kts
01-May-18 20:59 33.829785 -118.165342 313 940ft 188kts
01-May-18 21:00 33.853798 -118.228912 282 3299ft 242kts
01-May-18 21:01 33.866871 -118.307331 282 6812ft 260kts
01-May-18 21:02 33.878570 -118.395875 282 10215ft 283kts
01-May-18 21:03 33.882904 -118.496568 273 13013ft 323kts
01-May-18 21:04 33.923534 -118.589688 312 16102ft 330kts
01-May-18 21:05 33.982764 -118.673456 313 18857ft 347kts
01-May-18 21:06 34.047170 -118.762873 314 21408ft 362kts
01-May-18 21:07 34.113030 -118.854529 314 23614ft 378kts
01-May-18 21:08 34.181056 -118.949423 314 25816ft 385kts
01-May-18 21:09 34.251573 -119.048049 313 27786ft 393kts
01-May-18 21:10 34.323391 -119.148761 313 29545ft 400kts
01-May-18 21:11 34.395278 -119.249919 312 31549ft 395kts
01-May-18 21:12 34.465890 -119.349597 313 33383ft 388kts
01-May-18 21:13 34.536874 -119.449967 312 34016ft 408kts
01-May-18 21:14 34.613656 -119.558819 312 34010ft 437kts
01-May-18 21:15 34.690725 -119.668512 312 34008ft 439kts
01-May-18 21:16 34.769846 -119.781645 313 34026ft 436kts
01-May-18 21:17 34.847842 -119.893513 313 34024ft 435kts
01-May-18 21:18 34.926006 -120.005914 313 34023ft 435kts
01-May-18 21:19 35.004086 -120.118543 313 34031ft 435kts
01-May-18 21:20 35.082086 -120.231406 313 34030ft 435kts
01-May-18 21:21 35.154979 -120.337267 313 34041ft 428kts
01-May-18 21:22 35.231555 -120.448719 313 34030ft 429kts
01-May-18 21:23 35.308238 -120.560705 314 34029ft 431kts
01-May-18 21:24 35.379687 -120.665406 313 34030ft 432kts
01-May-18 21:25 35.456389 -120.778326 314 34030ft 430kts
01-May-18 21:26 35.541692 -120.874596 326 33978ft 416kts
01-May-18 21:27 35.634054 -120.959639 326 33980ft 416kts
01-May-18 21:28 35.726487 -121.045354 326 33978ft 417kts
01-May-18 21:29 35.818712 -121.131278 327 33979ft 417kts
01-May-18 21:30 35.910826 -121.217395 327 33974ft 417kts
01-May-18 21:31 36.002361 -121.303341 328 33971ft 407kts
01-May-18 21:32 36.091863 -121.385394 332 33979ft 389kts
01-May-18 21:33 36.171967 -121.447361 333 31895ft 372kts
01-May-18 21:34 36.259997 -121.515681 334 29569ft 367kts
01-May-18 21:35 36.344941 -121.581870 333 27376ft 364kts
01-May-18 21:36 36.430165 -121.648593 332 25188ft 364kts
01-May-18 21:37 36.512752 -121.713556 330 23143ft 363kts
01-May-18 21:38 36.596143 -121.779466 330 21090ft 347kts
01-May-18 21:39 36.675318 -121.842163 330 19183ft 336kts
01-May-18 21:40 36.754844 -121.900859 344 17371ft 331kts
01-May-18 21:41 36.843806 -121.925115 348 15518ft 325kts
01-May-18 21:42 36.931304 -121.948818 348 13631ft 320kts
01-May-18 21:43 37.015950 -121.978807 343 11724ft 315kts
01-May-18 21:44 37.092327 -122.008565 343 10531ft 259kts
01-May-18 21:45 37.157697 -122.034045 343 10027ft 265kts
01-May-18 21:46 37.226595 -122.060971 343 8832ft 260kts
01-May-18 21:47 37.294711 -122.087655 342 7604ft 255kts
01-May-18 21:48 37.361058 -122.113739 342 6263ft 249kts
01-May-18 21:49 37.425932 -122.137006 343 5043ft 228kts
01-May-18 21:50 37.483112 -122.156511 343 4017ft 201kts
01-May-18 21:51 37.534010 -122.177445 314 3164ft 188kts
01-May-18 21:52 37.558181 -122.231041 297 2254ft 165kts
01-May-18 21:53 37.578648 -122.279674 295 1409ft 148kts
01-May-18 21:54 37.596809 -122.322858 295 675ft 133kts
01-May-18 21:55 37.613728 -122.363215 294 40ft 129kts
01-May-18 21:56 37.618929 -122.378417 266 21ft 12kts
01-May-18 21:57 37.617864 -122.380642 258 21ft 0kts
01-May-18 21:58 37.617864 -122.380642 258 21ft 0kts
01-May-18 21:59 37.617864 -122.380642 258 21ft 0kts
01-May-18 22:00 37.617864 -122.380642 258 21ft 0kts
01-May-18 22:01 37.617864 -122.380642 258 21ft 0kts
01-May-18 22:02 37.617864 -122.380642 258 21ft 0kts
01-May-18 22:03 37.617864 -122.380642 258 21ft 0kts
01-May-18 22:04 37.617864 -122.380642 258 21ft 0kts
01-May-18 22:05 37.617864 -122.380642 258 21ft 0kts
01-May-18 22:06 37.617864 -122.380642 258 21ft 0kts
01-May-18 22:07 37.617864 -122.380642 258 21ft 0kts
01-May-18 22:08 37.617864 -122.380642 258 21ft 0kts
01-May-18 22:09 37.617864 -122.380642 258 21ft 0kts

Navigation Log

Ident Type
Flight plan parsing failed, navigation log unavailable